createdAt,value
2022-12-03T00:01:05.962Z,20.63
2022-12-03T00:06:58.772Z,24.65
2022-12-03T00:12:50.787Z,21.58
2022-12-03T00:18:43.754Z,22.55
2022-12-03T00:24:35.702Z,25.20
2022-12-03T00:30:27.700Z,23.13
2022-12-03T00:36:19.974Z,25.33
2022-12-03T00:42:12.613Z,25.70
2022-12-03T00:48:05.164Z,26.00
2022-12-03T00:53:57.614Z,24.75
2022-12-03T00:59:49.895Z,20.20
2022-12-03T01:05:42.491Z,25.27
2022-12-03T01:11:37.722Z,23.47
2022-12-03T01:17:30.002Z,19.67
2022-12-03T01:23:23.142Z,26.42
2022-12-03T01:29:15.931Z,23.00
2022-12-03T01:35:08.323Z,26.38
2022-12-03T01:41:00.973Z,21.85
2022-12-03T01:46:55.932Z,26.00
2022-12-03T01:52:48.234Z,24.98
2022-12-03T01:58:42.352Z,24.42
2022-12-03T02:04:34.672Z,21.55
2022-12-03T02:10:31.652Z,25.25
2022-12-03T02:16:24.232Z,22.38
2022-12-03T02:22:50.843Z,23.40
2022-12-03T02:28:43.034Z,24.27
2022-12-03T02:34:35.816Z,23.55
2022-12-03T02:46:21.912Z,26.08
2022-12-03T02:52:13.783Z,25.75
2022-12-03T02:58:06.931Z,20.30
2022-12-03T03:03:59.522Z,23.42
2022-12-03T03:09:52.622Z,22.05
2022-12-03T03:15:45.503Z,26.53
2022-12-03T03:21:38.852Z,25.40
2022-12-03T03:27:31.343Z,25.60
2022-12-03T03:33:23.941Z,26.17
2022-12-03T03:39:16.242Z,20.42
2022-12-03T03:45:09.142Z,21.83
2022-12-03T03:56:56.402Z,22.52
2022-12-03T04:02:49.334Z,20.75
2022-12-03T04:08:41.439Z,20.52
2022-12-03T04:14:34.205Z,23.33
2022-12-03T04:20:26.264Z,23.77
2022-12-03T04:26:36.802Z,22.98
2022-12-03T04:32:47.835Z,22.50
2022-12-03T04:38:39.932Z,21.00
2022-12-03T04:44:38.681Z,23.23
2022-12-03T04:50:31.194Z,22.65
2022-12-03T04:56:23.369Z,24.40
2022-12-03T05:02:15.459Z,21.48
2022-12-03T05:08:08.411Z,23.30
2022-12-03T05:14:00.901Z,27.98
2022-12-03T05:20:12.939Z,22.08
2022-12-03T05:26:05.250Z,25.52
2022-12-03T05:31:59.800Z,28.27
2022-12-03T05:37:52.500Z,27.87
2022-12-03T05:43:44.511Z,21.50
2022-12-03T05:49:36.331Z,26.30
2022-12-03T05:55:28.606Z,29.10
2022-12-03T06:01:20.391Z,28.08
2022-12-03T06:07:14.174Z,25.60
2022-12-03T06:13:06.498Z,26.83
2022-12-03T06:18:58.321Z,27.95
2022-12-03T06:24:50.730Z,29.58
2022-12-03T06:30:43.615Z,27.50
2022-12-03T06:36:35.421Z,26.98
2022-12-03T06:42:27.442Z,29.17
2022-12-03T06:48:19.687Z,29.47
2022-12-03T06:54:11.220Z,26.92
2022-12-03T07:00:06.635Z,27.87
2022-12-03T07:05:58.674Z,27.00
2022-12-03T07:11:50.400Z,29.45
2022-12-03T07:17:42.685Z,27.67
2022-12-03T07:23:34.750Z,28.98
2022-12-03T07:29:26.863Z,19.52
2022-12-03T07:35:18.449Z,21.83
2022-12-03T07:41:10.781Z,26.08
2022-12-03T07:47:03.027Z,28.13
2022-12-03T07:52:56.393Z,24.52
2022-12-03T07:58:48.685Z,14.97
2022-12-03T08:04:40.569Z,22.25
2022-12-03T08:10:33.020Z,23.13
2022-12-03T08:16:26.392Z,23.73
2022-12-03T08:22:18.860Z,18.30
2022-12-03T08:28:26.805Z,21.27
2022-12-03T08:34:25.230Z,22.98
2022-12-03T08:40:24.888Z,19.13
2022-12-03T08:46:19.698Z,18.60
2022-12-03T08:52:21.173Z,26.40
2022-12-03T08:58:23.333Z,21.02
2022-12-03T09:04:32.250Z,27.23
2022-12-03T09:10:24.590Z,28.17
2022-12-03T09:16:17.174Z,23.63
2022-12-03T09:22:10.061Z,32.28
2022-12-03T09:28:02.331Z,31.70
2022-12-03T09:33:55.050Z,24.38
2022-12-03T09:39:47.268Z,29.35
2022-12-03T09:45:40.081Z,30.77
2022-12-03T09:51:36.134Z,28.83
2022-12-03T09:57:28.433Z,25.70
2022-12-03T10:03:29.647Z,29.10
2022-12-03T10:09:28.356Z,25.30
2022-12-03T10:15:23.564Z,31.60
2022-12-03T10:21:24.441Z,28.83
2022-12-03T10:27:22.990Z,32.22
2022-12-03T10:33:18.804Z,32.13
2022-12-03T10:39:17.004Z,35.78
2022-12-03T10:45:15.230Z,34.42
2022-12-03T10:51:16.340Z,34.35
2022-12-03T10:57:09.792Z,31.80
2022-12-03T11:03:02.112Z,24.92
2022-12-03T11:08:58.689Z,26.23
2022-12-03T11:14:57.903Z,25.85
2022-12-03T11:21:06.250Z,32.53
2022-12-03T11:27:04.252Z,32.60
2022-12-03T11:33:06.689Z,27.45
2022-12-03T11:38:59.431Z,28.25
2022-12-03T11:45:06.983Z,31.50
2022-12-03T11:51:00.344Z,26.50
2022-12-03T11:56:53.530Z,35.80
2022-12-03T12:02:46.519Z,32.45
2022-12-03T12:08:41.982Z,32.85
2022-12-03T12:14:34.512Z,35.60
2022-12-03T12:20:31.779Z,27.58
2022-12-03T12:26:24.292Z,32.55
2022-12-03T12:32:19.053Z,31.05
2022-12-03T12:38:21.541Z,40.17
2022-12-03T12:44:14.802Z,39.85
2022-12-03T12:50:12.266Z,33.58
2022-12-03T12:56:26.593Z,29.20
2022-12-03T13:02:42.298Z,35.95
2022-12-03T13:08:49.547Z,37.90
2022-12-03T13:14:41.869Z,38.08
2022-12-03T13:20:37.071Z,34.75
2022-12-03T13:26:41.603Z,35.05
2022-12-03T13:32:39.311Z,32.80
2022-12-03T13:38:31.883Z,40.08
2022-12-03T13:44:24.953Z,37.42
2022-12-03T13:50:40.752Z,42.77
2022-12-03T13:56:36.810Z,41.25
2022-12-03T14:02:28.928Z,38.60
2022-12-03T14:08:23.439Z,38.47
2022-12-03T14:14:16.192Z,29.23
2022-12-03T14:20:09.468Z,33.10
2022-12-03T14:26:02.082Z,27.48
2022-12-03T14:31:54.889Z,31.20
2022-12-03T14:43:41.202Z,26.13
2022-12-03T14:49:33.960Z,31.38
2022-12-03T14:55:26.030Z,34.70
2022-12-03T15:01:18.628Z,24.23
2022-12-03T15:07:10.761Z,33.08
2022-12-03T15:13:03.005Z,36.60
2022-12-03T15:18:55.310Z,38.17
2022-12-03T15:24:47.740Z,32.60
2022-12-03T15:30:39.770Z,35.85
2022-12-03T15:36:32.762Z,45.15
2022-12-03T15:42:24.872Z,31.70
2022-12-03T15:48:17.030Z,31.52
2022-12-03T15:54:14.112Z,36.35
2022-12-03T16:00:08.530Z,42.60
2022-12-03T16:06:07.681Z,29.63
2022-12-03T16:12:00.602Z,39.58
2022-12-03T16:17:53.042Z,42.17
2022-12-03T16:23:45.253Z,43.25
2022-12-03T16:29:38.211Z,47.80
2022-12-03T16:35:30.419Z,45.60
2022-12-03T16:41:24.574Z,40.58
2022-12-03T16:47:20.244Z,40.42
2022-12-03T16:53:16.416Z,46.75
2022-12-03T16:59:10.311Z,38.70
2022-12-03T17:05:05.923Z,44.67
2022-12-03T17:11:00.189Z,37.03
2022-12-03T17:16:54.616Z,40.30
2022-12-03T17:22:50.520Z,35.13
2022-12-03T17:28:43.638Z,46.33
2022-12-03T17:34:38.941Z,49.53
2022-12-03T17:40:32.780Z,51.03
2022-12-03T17:46:25.271Z,49.28
2022-12-03T17:52:17.464Z,47.60
2022-12-03T17:58:11.999Z,48.60
2022-12-03T18:04:07.588Z,49.65
2022-12-03T18:10:00.253Z,48.03
2022-12-03T18:15:53.669Z,47.22
2022-12-03T18:21:46.640Z,45.10
2022-12-03T18:27:39.230Z,44.40
2022-12-03T18:33:31.311Z,46.30
2022-12-03T18:39:35.382Z,46.80
2022-12-03T18:45:27.750Z,50.50
2022-12-03T18:51:24.390Z,46.53
2022-12-03T18:57:16.954Z,44.78
2022-12-03T19:09:02.622Z,46.53
2022-12-03T19:14:55.775Z,48.47
2022-12-03T19:20:49.122Z,41.80
2022-12-03T19:26:41.379Z,37.87
2022-12-03T19:32:35.739Z,51.38
2022-12-03T19:38:30.125Z,48.08
2022-12-03T19:44:23.176Z,36.83
2022-12-03T19:50:23.006Z,51.70
2022-12-03T19:56:21.627Z,49.38
2022-12-03T20:02:15.104Z,47.80
2022-12-03T20:08:08.707Z,49.70
2022-12-03T20:14:08.562Z,45.58
2022-12-03T20:20:01.987Z,43.33
2022-12-03T20:25:57.279Z,50.17
2022-12-03T20:31:54.484Z,48.75
2022-12-03T20:37:48.263Z,50.08
2022-12-03T20:43:45.882Z,47.05
2022-12-03T20:49:40.505Z,34.90
2022-12-03T20:55:32.575Z,34.67
2022-12-03T21:01:28.064Z,47.53
2022-12-03T21:07:22.170Z,51.17
2022-12-03T21:13:17.602Z,52.77
2022-12-03T21:19:10.504Z,35.55
2022-12-03T21:25:04.977Z,51.15
2022-12-03T21:31:05.356Z,47.65
2022-12-03T21:36:58.070Z,48.03
2022-12-03T21:42:51.139Z,51.17
2022-12-03T21:48:46.705Z,51.53
2022-12-03T21:54:38.990Z,50.55
2022-12-03T22:00:32.170Z,52.53
2022-12-03T22:06:25.168Z,55.40
2022-12-03T22:12:19.310Z,53.90
2022-12-03T22:18:12.382Z,53.73
2022-12-03T22:24:05.726Z,50.55
2022-12-03T22:29:58.352Z,52.58
2022-12-03T22:35:58.670Z,55.80
2022-12-03T22:41:50.710Z,58.33
2022-12-03T22:47:42.961Z,51.83
2022-12-03T22:53:35.013Z,52.25
2022-12-03T22:59:27.132Z,53.03
2022-12-03T23:05:19.092Z,52.67
2022-12-03T23:11:11.344Z,51.78
2022-12-03T23:17:04.960Z,50.70
2022-12-03T23:22:57.290Z,51.00
2022-12-03T23:28:50.320Z,50.88
2022-12-03T23:34:42.997Z,48.65
2022-12-03T23:40:35.082Z,52.35
2022-12-03T23:46:27.844Z,51.10
2022-12-03T23:52:19.911Z,49.57
2022-12-03T23:58:12.551Z,50.23
